Time;durP1;ratioP1;P1;durP2;ratioP2;P2;SDS_P1;SDS_P2;PMS_P1;PMS_P2;Temp;Humidity;BMP_temperature;BMP_pressure;BME280_temperature;BME280_humidity;BME280_pressure;Samples;Min_cycle;Max_cycle;Signal;HPM_P1;HPM_P2
2021/04/19 00:01:35;;;;;;;2.13;1.23;;;;;;;9.06;43.20;102480.38;5038078;28;20375;-77
2021/04/19 00:04:01;;;;;;;;;;;;;;;9.05;42.85;102491.28;5057170;28;20049;-77
2021/04/19 00:06:26;;;;;;;3.55;1.40;;;;;;;9.05;42.99;102485.91;5053609;28;19982;-77
2021/04/19 00:09:10;;;;;;;2.95;1.40;;;;;;;8.96;43.30;102497.50;5038287;28;20375;-77
2021/04/19 00:11:36;;;;;;;2.22;1.13;;;;;;;8.82;43.56;102478.22;5055570;28;20045;-77
2021/04/19 00:14:02;;;;;;;4.50;1.30;;;;;;;8.81;43.61;102467.63;5054506;28;20032;-77
2021/04/19 00:16:31;;;;;;;3.40;1.27;;;;;;;8.48;43.84;102434.97;5056419;28;20051;-77
2021/04/19 00:18:56;;;;;;;3.80;1.17;;;;;;;8.68;43.79;102466.09;5054624;28;20025;-76
2021/04/19 00:21:22;;;;;;;2.88;1.30;;;;;;;8.88;43.50;102495.56;5055585;28;20095;-77
2021/04/19 00:23:48;;;;;;;3.35;1.48;;;;;;;8.84;43.28;102504.88;5038034;28;20458;-77
2021/04/19 00:26:13;;;;;;;2.80;1.42;;;;;;;8.78;43.37;102500.97;5052349;28;20029;-77
2021/04/19 00:28:40;;;;;;;2.65;1.40;;;;;;;8.75;43.74;102501.25;5021241;28;20041;-77
2021/04/19 00:31:08;;;;;;;3.58;1.35;;;;;;;8.59;43.35;102476.88;5055108;28;20098;-77
2021/04/19 00:33:35;;;;;;;3.83;1.35;;;;;;;8.57;43.21;102478.84;5070533;28;20040;-76
2021/04/19 00:36:01;;;;;;;5.68;1.10;;;;;;;8.68;43.04;102497.47;5052972;28;20459;-77
2021/04/19 00:38:27;;;;;;;4.05;1.40;;;;;;;8.53;43.36;102485.50;5053746;28;20044;-77
2021/04/19 00:40:54;;;;;;;2.15;1.08;;;;;;;8.54;43.60;102493.38;5054467;28;20478;-76
2021/04/19 00:43:23;;;;;;;2.75;1.15;;;;;;;8.32;43.94;102466.88;5052807;28;20363;-77
2021/04/19 00:45:52;;;;;;;5.40;1.30;;;;;;;8.32;43.67;102478.44;5055478;28;20048;-77
2021/04/19 00:48:19;;;;;;;3.90;1.23;;;;;;;8.43;43.83;102496.22;5052618;28;20031;-77
2021/04/19 00:50:46;;;;;;;2.70;1.30;;;;;;;8.45;43.29;102499.63;5055400;28;20063;-77
2021/04/19 00:53:20;;;;;;;4.85;1.35;;;;;;;8.41;42.58;102496.41;5053428;28;20384;-77
2021/04/19 00:55:46;;;;;;;3.45;1.15;;;;;;;8.27;43.34;102479.84;5038091;28;20043;-77
2021/04/19 00:58:12;;;;;;;3.45;1.20;;;;;;;8.26;43.71;102491.56;5054158;28;20132;-77
2021/04/19 01:00:39;;;;;;;2.30;1.20;;;;;;;8.15;43.79;102484.53;5052168;28;20104;-76
2021/04/19 01:03:06;;;;;;;3.10;1.25;;;;;;;8.12;44.12;102492.84;5055522;28;20039;-77
2021/04/19 01:05:38;;;;;;;2.38;1.20;;;;;;;7.99;44.52;102490.44;5053127;28;20045;-77
2021/04/19 01:08:10;;;;;;;3.42;1.20;;;;;;;7.92;44.36;102489.31;5057165;28;20017;-77
2021/04/19 01:10:37;;;;;;;3.33;1.02;;;;;;;7.84;44.41;102495.38;5056538;28;20459;-77
2021/04/19 01:13:10;;;;;;;2.10;1.10;;;;;;;7.62;44.79;102474.22;5057434;28;20045;-77
2021/04/19 01:15:36;;;;;;;2.22;1.38;;;;;;;7.46;44.93;102454.16;5061856;28;20043;-78
2021/04/19 01:18:02;;;;;;;2.63;1.20;;;;;;;7.64;45.24;102496.31;5061643;28;20403;-77
2021/04/19 01:20:30;;;;;;;3.17;1.25;;;;;;;7.58;45.56;102496.88;5059687;28;20087;-77
2021/04/19 01:22:56;;;;;;;2.40;1.13;;;;;;;7.44;45.63;102488.25;5062801;28;20031;-77
2021/04/19 01:25:27;;;;;;;3.25;1.17;;;;;;;7.32;45.63;102478.66;5042469;28;20056;-77
2021/04/19 01:27:54;;;;;;;4.85;1.55;;;;;;;7.38;46.20;102496.81;5056353;28;20094;-77
2021/04/19 01:30:23;;;;;;;2.75;1.10;;;;;;;6.89;46.41;102431.59;5057319;28;20567;-77
2021/04/19 01:32:49;;;;;;;4.63;1.20;;;;;;;7.11;46.51;102478.69;5054551;28;20060;-76
2021/04/19 01:35:15;;;;;;;7.40;1.30;;;;;;;7.16;46.66;102505.09;5052911;28;20454;-77
2021/04/19 01:37:42;;;;;;;3.80;1.52;;;;;;;7.03;46.44;102483.91;5053346;28;20124;-77
2021/04/19 01:40:13;;;;;;;2.80;1.33;;;;;;;7.08;46.41;102492.34;5036098;28;20459;-77
2021/04/19 01:42:38;;;;;;;3.53;1.50;;;;;;;7.05;46.61;102504.19;5051852;28;20508;-77
2021/04/19 01:45:06;;;;;;;7.22;1.40;;;;;;;7.00;47.64;102494.88;5053551;28;20028;-77
2021/04/19 01:47:32;;;;;;;3.50;1.60;;;;;;;6.38;47.56;102405.72;5036025;28;20032;-77
2021/04/19 01:49:58;;;;;;;6.43;1.50;;;;;;;6.82;47.71;102489.28;5055696;28;20025;-77
2021/04/19 01:52:23;;;;;;;5.22;1.60;;;;;;;6.77;47.82;102486.16;5054625;28;20028;-77
2021/04/19 01:54:50;;;;;;;3.97;1.70;;;;;;;6.82;47.87;102491.94;5054145;28;20040;-76
2021/04/19 01:57:15;;;;;;;3.50;1.60;;;;;;;6.64;48.06;102474.84;5053957;28;20037;-77
2021/04/19 01:59:42;;;;;;;4.15;1.60;;;;;;;6.71;47.96;102484.88;5052838;28;20032;-77
2021/04/19 02:02:22;;;;;;;4.28;1.50;;;;;;;6.64;48.34;102483.69;5036919;28;20055;-77
2021/04/19 02:05:06;;;;;;;3.83;1.48;;;;;;;6.59;48.26;102491.28;5054844;28;20112;-76
2021/04/19 02:07:53;;;;;;;4.05;1.33;;;;;;;6.52;48.43;102496.31;5053276;28;20040;-77
2021/04/19 02:10:46;;;;;;;4.13;1.70;;;;;;;6.31;48.82;102472.22;5053024;28;20087;-77
2021/04/19 02:13:21;;;;;;;9.48;2.00;;;;;;;6.29;48.65;102457.28;5053218;28;20696;-77
2021/04/19 02:16:01;;;;;;;4.28;1.80;;;;;;;6.44;48.44;102487.25;5052294;28;20104;-77
2021/04/19 02:18:54;;;;;;;4.65;1.80;;;;;;;6.35;48.85;102486.19;5066390;28;20036;-77
2021/04/19 02:21:50;;;;;;;2.38;1.40;;;;;;;6.03;49.12;102433.66;5053814;28;20025;-77
2021/04/19 02:24:25;;;;;;;3.40;1.60;;;;;;;6.35;48.61;102478.16;5047034;28;20641;-77
2021/04/19 02:26:57;;;;;;;3.05;1.60;;;;;;;6.38;48.81;102488.59;5053962;28;20120;-76
2021/04/19 02:29:43;;;;;;;5.53;1.60;;;;;;;6.17;49.09;102458.34;5051057;28;20035;-78
2021/04/19 02:32:36;;;;;;;5.82;1.70;;;;;;;6.09;48.92;102462.53;5069896;28;20363;-77
2021/04/19 02:35:09;;;;;;;3.70;1.30;;;;;;;6.20;49.06;102487.50;5048362;28;20025;-76
2021/04/19 02:37:37;;;;;;;3.40;1.75;;;;;;;6.14;49.00;102485.34;5069684;28;20116;-77
2021/04/19 02:40:08;;;;;;;3.35;1.40;;;;;;;6.04;49.96;102478.09;5051737;28;20138;-76
2021/04/19 02:42:38;;;;;;;2.03;1.20;;;;;;;5.62;50.44;102429.03;5053027;28;20085;-77
2021/04/19 02:45:07;;;;;;;3.53;1.20;;;;;;;5.89;50.88;102490.00;5051998;28;20032;-77
2021/04/19 02:47:34;;;;;;;2.78;1.30;;;;;;;5.82;51.77;102486.16;5052282;28;20048;-76
2021/04/19 02:50:04;;;;;;;4.07;1.50;;;;;;;5.72;51.19;102482.53;5051953;28;20029;-77
2021/04/19 02:52:32;;;;;;;4.72;1.27;;;;;;;5.48;51.33;102451.53;5052433;28;20033;-77
2021/04/19 02:54:58;;;;;;;4.53;1.45;;;;;;;5.57;51.94;102480.16;5050485;28;20025;-77
2021/04/19 02:57:32;;;;;;;4.15;1.40;;;;;;;5.44;51.99;102468.78;5052265;28;20031;-77
2021/04/19 03:00:00;;;;;;;1.90;1.10;;;;;;;5.41;52.01;102479.72;5052505;28;20054;-76
2021/04/19 03:02:30;;;;;;;3.50;1.13;;;;;;;5.25;52.09;102464.09;5050623;28;20458;-77
2021/04/19 03:05:05;;;;;;;4.10;1.30;;;;;;;5.30;52.53;102482.41;5053008;28;20095;-76
2021/04/19 03:07:40;;;;;;;4.72;1.65;;;;;;;5.26;52.20;102486.28;5051997;28;20032;-77
2021/04/19 03:10:18;;;;;;;4.00;1.27;;;;;;;5.21;52.61;102485.81;5051925;28;20033;-77
2021/04/19 03:12:48;;;;;;;2.17;1.20;;;;;;;5.20;52.22;102479.63;5068718;28;20056;-77
2021/04/19 03:15:24;;;;;;;1.70;1.13;;;;;;;5.17;53.19;102485.22;5051842;28;20031;-77
2021/04/19 03:17:52;;;;;;;6.03;1.30;;;;;;;5.15;52.81;102484.47;5052909;28;20021;-77
2021/04/19 03:20:42;;;;;;;3.35;1.10;;;;;;;4.96;53.09;102461.06;5052060;28;20029;-77
2021/04/19 03:23:10;;;;;;;2.22;1.10;;;;;;;5.08;52.28;102483.25;5051214;28;20048;-77
2021/04/19 03:25:37;;;;;;;2.25;1.35;;;;;;;5.08;52.45;102478.78;5053159;28;20013;-77
2021/04/19 03:28:05;;;;;;;2.03;1.08;;;;;;;5.06;52.47;102470.03;5054756;28;20071;-77
2021/04/19 03:30:30;;;;;;;2.60;1.10;;;;;;;5.09;52.28;102466.28;5056249;28;20025;-77
2021/04/19 03:32:57;;;;;;;3.80;1.27;;;;;;;5.19;52.20;102473.41;5055330;28;20032;-77
2021/04/19 03:35:28;;;;;;;2.47;1.02;;;;;;;5.00;52.03;102433.19;5056987;28;20472;-77
2021/04/19 03:37:56;;;;;;;3.65;1.40;;;;;;;5.30;51.61;102485.09;5054975;28;20029;-77
2021/04/19 03:40:29;;;;;;;2.47;1.10;;;;;;;5.11;51.94;102449.19;5055998;28;20116;-77
2021/04/19 03:43:01;;;;;;;1.95;0.90;;;;;;;5.28;51.48;102473.66;5056019;28;20037;-77
2021/04/19 03:45:29;;;;;;;2.17;1.10;;;;;;;5.29;52.09;102492.22;5054231;28;20020;-77
2021/04/19 03:47:58;;;;;;;3.47;1.45;;;;;;;5.25;52.26;102482.75;5054490;28;20045;-77
2021/04/19 03:50:25;;;;;;;4.40;1.38;;;;;;;5.14;51.95;102462.28;5055765;28;20029;-77
2021/04/19 03:52:54;;;;;;;2.45;1.05;;;;;;;5.28;52.48;102484.34;5054080;28;20180;-77
2021/04/19 03:55:20;;;;;;;2.25;1.02;;;;;;;5.24;51.84;102474.91;5056481;28;20032;-77
2021/04/19 03:57:48;;;;;;;4.90;0.90;;;;;;;5.18;51.98;102466.41;5056506;28;20025;-77
2021/04/19 04:00:19;;;;;;;2.33;1.00;;;;;;;5.21;52.74;102469.81;5071353;28;20025;-77
2021/04/19 04:02:50;;;;;;;3.88;1.10;;;;;;;5.09;51.97;102458.28;5056320;28;20029;-77
2021/04/19 04:05:20;;;;;;;4.63;1.10;;;;;;;5.20;52.12;102471.63;5054592;28;20021;-77
2021/04/19 04:07:49;;;;;;;2.50;1.20;;;;;;;5.17;51.75;102479.88;5052349;28;20052;-77
2021/04/19 04:10:17;;;;;;;3.15;1.13;;;;;;;5.15;52.36;102471.97;5055235;28;20086;-77
2021/04/19 04:12:43;;;;;;;4.70;1.33;;;;;;;5.21;52.32;102475.13;5053481;28;20383;-78
2021/04/19 04:15:08;;;;;;;3.72;1.08;;;;;;;5.34;51.62;102478.50;5038511;28;20033;-78
2021/04/19 04:17:34;;;;;;;3.67;1.13;;;;;;;5.30;51.84;102453.91;5056121;28;20415;-78
2021/04/19 04:19:59;;;;;;;3.78;1.10;;;;;;;5.31;51.20;102439.56;5054376;28;20044;-78
2021/04/19 04:22:25;;;;;;;2.78;1.13;;;;;;;5.31;50.96;102409.38;5038393;28;20021;-78
2021/04/19 04:24:52;;;;;;;2.63;1.30;;;;;;;5.93;50.02;102482.63;5053142;28;20399;-78
2021/04/19 04:27:17;;;;;;;2.55;1.10;;;;;;;6.01;50.32;102481.00;5052274;28;20352;-78
2021/04/19 04:29:43;;;;;;;1.90;1.10;;;;;;;6.10;49.96;102468.72;5056071;28;20024;-77
2021/04/19 04:32:09;;;;;;;3.30;1.20;;;;;;;6.20;48.89;102472.31;5041608;28;20052;-76
2021/04/19 04:34:36;;;;;;;3.35;1.40;;;;;;;6.23;48.61;102452.50;5055558;28;20033;-78
2021/04/19 04:37:02;;;;;;;3.55;1.13;;;;;;;6.39;48.48;102468.94;5039676;28;20488;-78
2021/04/19 04:39:28;;;;;;;1.95;1.10;;;;;;;6.49;48.16;102459.13;5056696;28;20024;-78
2021/04/19 04:41:54;;;;;;;5.20;1.00;;;;;;;6.51;48.00;102475.03;5051448;28;20564;-78
2021/04/19 04:44:26;;;;;;;5.68;1.30;;;;;;;6.67;47.78;102479.91;5062504;28;20060;-78
2021/04/19 04:47:11;;;;;;;3.17;1.17;;;;;;;7.06;47.28;102479.13;5052161;28;20021;-77
2021/04/19 04:49:57;;;;;;;5.38;1.40;;;;;;;7.04;46.68;102474.88;5052039;28;20025;-77
2021/04/19 04:52:25;;;;;;;4.10;1.30;;;;;;;7.22;46.24;102480.47;5062655;28;20578;-78
2021/04/19 04:54:52;;;;;;;1.70;1.10;;;;;;;7.42;45.87;102481.34;5051022;28;20041;-78
2021/04/19 04:57:22;;;;;;;2.53;1.00;;;;;;;7.53;45.17;102468.69;5065006;28;20022;-78
2021/04/19 04:59:51;;;;;;;4.03;1.08;;;;;;;7.47;45.33;102481.78;5051367;28;20037;-78
2021/04/19 05:02:21;;;;;;;3.28;1.02;;;;;;;7.57;45.43;102471.94;5052742;28;20332;-78
2021/04/19 05:04:50;;;;;;;2.00;0.85;;;;;;;7.74;45.09;102478.44;5048404;28;20041;-78
2021/04/19 05:07:17;;;;;;;3.45;1.05;;;;;;;7.93;44.58;102465.03;5044454;28;20031;-78
2021/04/19 05:09:47;;;;;;;4.68;1.00;;;;;;;7.79;44.40;102444.03;5031947;28;20021;-78
2021/04/19 05:12:15;;;;;;;3.15;0.98;;;;;;;8.25;44.10;102480.00;5050632;28;20040;-77
2021/04/19 05:14:54;;;;;;;2.63;1.05;;;;;;;8.10;43.80;102470.69;5048474;28;20029;-78
2021/04/19 05:17:21;;;;;;;3.53;1.40;;;;;;;8.33;43.15;102463.19;5048085;28;20033;-78
2021/04/19 05:19:47;;;;;;;3.55;1.50;;;;;;;9.16;42.43;102485.69;5052543;28;20072;-78
2021/04/19 05:22:12;;;;;;;3.00;0.93;;;;;;;9.36;41.55;102467.63;5047398;28;20091;-77
2021/04/19 05:24:39;;;;;;;2.90;1.10;;;;;;;8.79;42.71;102491.91;5048695;28;20033;-78
2021/04/19 05:27:05;;;;;;;2.58;1.10;;;;;;;7.87;44.42;102483.53;5029489;28;20404;-78
2021/04/19 05:29:31;;;;;;;1.88;1.05;;;;;;;7.50;45.87;102506.44;5050193;28;20020;-78
2021/04/19 05:31:56;;;;;;;2.72;1.23;;;;;;;6.62;46.54;102394.72;5034092;28;20402;-78
2021/04/19 05:34:23;;;;;;;6.97;1.40;;;;;;;7.30;46.82;102515.41;5065016;28;20021;-78
2021/04/19 05:36:50;;;;;;;4.13;1.25;;;;;;;7.20;46.74;102506.50;5046593;28;20029;-78
2021/04/19 05:39:17;;;;;;;4.47;1.30;;;;;;;7.03;47.41;102473.19;5048239;28;20043;-78
2021/04/19 05:41:43;;;;;;;1.90;0.93;;;;;;;6.73;47.21;102412.50;5048002;28;20099;-78
2021/04/19 05:44:09;;;;;;;3.15;1.13;;;;;;;7.00;47.19;102460.06;5047446;28;20031;-78
2021/04/19 05:46:35;;;;;;;2.75;1.20;;;;;;;7.27;47.09;102497.78;5051077;28;20037;-78
2021/04/19 05:49:01;;;;;;;2.33;0.90;;;;;;;7.29;46.60;102505.69;5046349;28;20486;-78
2021/04/19 05:51:31;;;;;;;8.65;1.40;;;;;;;7.24;47.13;102497.22;5052967;28;20048;-78
2021/04/19 05:53:57;;;;;;;3.28;1.50;;;;;;;7.11;46.88;102486.72;5054651;28;20450;-78
2021/04/19 05:56:37;;;;;;;5.40;1.15;;;;;;;7.23;46.97;102493.69;5052737;28;20032;-78
2021/04/19 05:59:17;;;;;;;3.00;1.20;;;;;;;7.46;46.83;102507.72;5052122;28;20059;-77
2021/04/19 06:01:46;;;;;;;6.15;1.35;;;;;;;7.66;46.60;102508.59;5052701;28;20013;-78
2021/04/19 06:04:23;;;;;;;5.95;1.15;;;;;;;7.76;46.27;102498.75;5051205;28;20052;-78
2021/04/19 06:07:01;;;;;;;6.47;1.10;;;;;;;7.94;46.27;102511.44;5052364;28;20032;-78
2021/04/19 06:09:51;;;;;;;7.40;1.45;;;;;;;7.94;45.59;102500.72;5052926;28;20028;-78
2021/04/19 06:12:26;;;;;;;5.32;1.10;;;;;;;7.98;45.78;102497.66;5053183;28;20051;-78
2021/04/19 06:14:57;;;;;;;9.63;2.03;;;;;;;8.07;45.90;102506.66;5066489;28;20029;-77
2021/04/19 06:17:23;;;;;;;3.13;1.45;;;;;;;8.16;45.61;102510.34;5060845;28;20740;-77
2021/04/19 06:19:49;;;;;;;9.18;1.52;;;;;;;7.91;45.25;102471.53;5052529;28;20058;-77
2021/04/19 06:22:16;;;;;;;13.88;1.73;;;;;;;8.25;45.44;102512.19;5053655;28;20366;-77
2021/04/19 06:24:50;;;;;;;7.35;1.45;;;;;;;8.27;44.66;102498.63;5052190;28;20036;-77
2021/04/19 06:27:35;;;;;;;9.63;1.90;;;;;;;8.53;44.52;102509.63;5052207;28;20075;-77
2021/04/19 06:30:15;;;;;;;7.22;1.40;;;;;;;8.59;43.87;102506.38;5049668;28;20073;-78
2021/04/19 06:32:42;;;;;;;5.15;1.48;;;;;;;8.56;44.20;102507.50;5083327;28;20378;-78
2021/04/19 06:35:09;;;;;;;3.63;1.30;;;;;;;8.68;44.02;102505.53;5056706;28;20343;-77
2021/04/19 06:37:36;;;;;;;5.40;1.13;;;;;;;8.70;44.11;102508.88;5053489;28;20358;-77
2021/04/19 06:40:04;;;;;;;5.40;1.50;;;;;;;8.85;43.57;102496.72;5053329;28;20105;-78
2021/04/19 06:42:31;;;;;;;6.35;1.60;;;;;;;8.96;43.67;102502.88;5050573;28;20155;-78
2021/04/19 06:45:05;;;;;;;4.88;1.25;;;;;;;9.02;44.12;102499.63;5050188;28;20071;-77
2021/04/19 06:47:34;;;;;;;;;;;;;;;8.88;45.56;102498.25;5046329;28;20423;-77
2021/04/19 06:50:02;;;;;;;5.78;1.33;;;;;;;9.01;44.89;102479.13;5052244;28;19920;-77
2021/04/19 06:52:28;;;;;;;4.82;1.20;;;;;;;8.98;45.35;102492.84;5053228;28;20021;-77
2021/04/19 06:54:54;;;;;;;3.20;1.48;;;;;;;8.93;47.17;102495.97;5048517;28;20104;-78
2021/04/19 06:57:21;;;;;;;4.47;1.27;;;;;;;8.93;47.12;102493.28;5046868;28;20032;-77
2021/04/19 06:59:46;;;;;;;3.22;1.23;;;;;;;9.06;46.75;102493.78;5062361;28;20024;-78
2021/04/19 07:02:21;;;;;;;3.40;1.45;;;;;;;8.99;46.35;102481.13;5050843;28;20029;-78
2021/04/19 07:04:54;;;;;;;5.68;1.42;;;;;;;8.82;47.31;102454.03;5053547;28;20455;-78
2021/04/19 07:07:28;;;;;;;5.97;1.30;;;;;;;9.07;46.88;102490.13;5065610;28;20032;-78
2021/04/19 07:09:57;;;;;;;4.03;1.33;;;;;;;9.11;46.13;102485.31;5051781;28;20059;-78
2021/04/19 07:12:33;;;;;;;4.55;1.20;;;;;;;9.21;46.04;102482.59;5054363;28;20130;-78
2021/04/19 07:15:03;;;;;;;3.17;1.10;;;;;;;9.33;45.00;102468.78;5050685;28;20042;-78
2021/04/19 07:17:30;;;;;;;3.45;1.20;;;;;;;9.48;45.08;102481.72;5052616;28;20079;-78
2021/04/19 07:19:56;;;;;;;4.40;1.02;;;;;;;9.00;45.78;102429.94;5050525;28;20023;-77
2021/04/19 07:22:22;;;;;;;5.35;1.02;;;;;;;9.17;45.93;102447.09;5072229;28;20021;-78
2021/04/19 07:24:48;;;;;;;5.13;1.23;;;;;;;9.51;46.37;102479.56;5075979;28;20028;-77
2021/04/19 07:27:15;;;;;;;4.00;1.25;;;;;;;9.72;44.97;102473.91;5047258;28;20076;-78
2021/04/19 07:29:41;;;;;;;3.05;1.40;;;;;;;9.84;44.29;102477.22;5048550;28;20042;-78
2021/04/19 07:32:07;;;;;;;4.50;1.30;;;;;;;10.00;44.54;102471.13;5038055;28;20116;-78
2021/04/19 07:34:34;;;;;;;3.47;1.27;;;;;;;10.21;44.58;102463.59;5071567;28;20131;-78
2021/04/19 07:37:05;;;;;;;3.72;1.30;;;;;;;9.95;44.87;102415.13;5072746;28;20031;-78
2021/04/19 07:39:36;;;;;;;3.72;1.20;;;;;;;10.21;42.35;102436.69;5039286;28;20044;-77
2021/04/19 07:42:10;;;;;;;3.08;1.40;;;;;;;10.67;42.05;102466.97;5060176;28;20031;-77
2021/04/19 07:44:45;;;;;;;4.72;1.38;;;;;;;10.77;41.73;102461.50;5058057;28;20378;-78
2021/04/19 07:47:30;;;;;;;6.53;1.40;;;;;;;10.77;40.25;102462.31;5058147;28;20048;-78
2021/04/19 07:50:14;;;;;;;10.95;1.73;;;;;;;10.90;39.82;102459.19;5058981;28;20017;-77
2021/04/19 07:53:05;;;;;;;3.83;1.38;;;;;;;10.77;38.84;102454.25;5063595;28;20036;-77
2021/04/19 07:55:31;;;;;;;5.28;1.38;;;;;;;10.71;39.90;102457.56;5062272;28;20021;-78
2021/04/19 07:57:58;;;;;;;9.75;1.70;;;;;;;10.85;40.12;102453.44;5058870;28;20037;-78
2021/04/19 08:00:42;;;;;;;10.45;1.92;;;;;;;10.86;39.01;102456.97;5057130;28;20449;-78
2021/04/19 08:03:16;;;;;;;7.23;1.60;;;;;;;11.05;38.72;102456.72;5039885;28;20036;-78
2021/04/19 08:05:47;;;;;;;8.27;1.75;;;;;;;11.21;38.65;102456.81;5067878;28;21094;-77
2021/04/19 08:08:12;;;;;;;7.88;1.67;;;;;;;11.20;38.30;102447.03;5054966;28;20082;-78
2021/04/19 08:10:40;;;;;;;5.57;1.75;;;;;;;11.38;38.52;102459.56;5066269;28;20025;-77
2021/04/19 08:13:10;;;;;;;4.97;1.40;;;;;;;11.62;38.00;102453.38;5054873;28;20044;-77
2021/04/19 08:15:39;;;;;;;7.53;1.58;;;;;;;11.72;37.79;102449.53;5054000;28;20047;-77
2021/04/19 08:18:15;;;;;;;7.10;1.30;;;;;;;11.81;36.64;102449.53;5066515;28;20025;-78
2021/04/19 08:20:58;;;;;;;2.45;1.20;;;;;;;11.54;36.05;102446.13;5053725;28;20086;-77
2021/04/19 08:23:24;;;;;;;6.05;1.10;;;;;;;11.70;37.04;102454.25;5033346;28;20028;-77
2021/04/19 08:25:54;;;;;;;8.02;1.55;;;;;;;11.86;37.05;102447.22;5019545;28;20052;-78
2021/04/19 08:28:25;;;;;;;2.65;1.00;;;;;;;11.86;37.00;102448.06;5057830;28;20102;-77
2021/04/19 08:30:58;;;;;;;4.97;1.15;;;;;;;11.98;36.82;102435.91;5058958;28;20052;-77
2021/04/19 08:33:24;;;;;;;6.32;1.30;;;;;;;12.30;36.87;102449.56;5052975;28;20443;-78
2021/04/19 08:35:50;;;;;;;3.05;1.30;;;;;;;12.38;36.28;102446.84;5053939;28;20033;-77
2021/04/19 08:38:21;;;;;;;1.63;1.00;;;;;;;12.47;36.24;102445.81;5050204;28;20381;-78
2021/04/19 08:40:50;;;;;;;4.03;1.15;;;;;;;12.45;36.42;102407.38;5048266;28;20033;-78
2021/04/19 08:43:28;;;;;;;2.47;1.10;;;;;;;12.70;35.45;102435.97;5052499;28;20358;-77
2021/04/19 08:45:56;;;;;;;3.92;1.20;;;;;;;12.77;35.67;102435.28;5051013;28;20035;-78
2021/04/19 08:48:22;;;;;;;3.97;1.00;;;;;;;12.83;36.01;102411.13;5051250;28;20025;-77
2021/04/19 08:50:51;;;;;;;3.97;1.40;;;;;;;13.03;35.21;102430.47;5051791;28;20101;-79
2021/04/19 08:53:18;;;;;;;3.35;1.10;;;;;;;12.77;35.21;102428.03;5037181;28;20063;-78
2021/04/19 08:55:46;;;;;;;5.00;1.40;;;;;;;13.14;35.96;102432.78;5050462;28;20118;-77
2021/04/19 08:58:14;;;;;;;2.70;1.15;;;;;;;13.21;35.44;102407.75;5051386;28;20096;-77
2021/04/19 09:00:52;;;;;;;3.53;1.05;;;;;;;13.38;35.24;102433.72;5062916;28;20033;-77
2021/04/19 09:03:20;;;;;;;4.75;1.20;;;;;;;13.14;34.56;102411.19;5049701;28;20446;-77
2021/04/19 09:05:46;;;;;;;3.90;1.30;;;;;;;12.93;34.83;102394.72;5050170;28;20041;-78
2021/04/19 09:08:15;;;;;;;5.90;1.25;;;;;;;13.25;34.79;102426.19;5034655;28;20025;-77
2021/04/19 09:10:50;;;;;;;6.22;1.20;;;;;;;13.45;34.12;102417.63;5050801;28;20029;-77
2021/04/19 09:13:34;;;;;;;4.82;1.42;;;;;;;13.53;34.45;102418.38;5050963;28;20047;-77
2021/04/19 09:16:19;;;;;;;3.03;1.23;;;;;;;13.76;34.55;102412.16;5049403;28;20028;-77
2021/04/19 09:18:53;;;;;;;9.73;1.35;;;;;;;13.77;33.90;102408.41;5053385;28;20033;-77
2021/04/19 09:21:37;;;;;;;5.15;1.23;;;;;;;13.49;34.17;102367.56;5063842;28;20028;-77
2021/04/19 09:24:09;;;;;;;5.93;1.35;;;;;;;13.92;33.98;102390.38;5060264;28;20532;-77
2021/04/19 09:26:47;;;;;;;6.65;1.15;;;;;;;13.92;33.51;102398.50;5065740;28;20024;-77
2021/04/19 09:29:35;;;;;;;5.50;1.42;;;;;;;14.08;33.75;102409.19;5054089;28;20072;-78
2021/04/19 09:32:08;;;;;;;2.58;1.00;;;;;;;14.26;33.49;102402.56;5053221;28;20036;-78
2021/04/19 09:34:45;;;;;;;5.07;1.40;;;;;;;14.28;33.24;102406.78;5049619;28;20033;-78
2021/04/19 09:37:17;;;;;;;5.95;1.23;;;;;;;14.29;33.72;102410.34;5062810;28;20029;-78
2021/04/19 09:40:06;;;;;;;2.45;1.20;;;;;;;14.48;33.36;102403.53;5051514;28;20477;-77
2021/04/19 09:42:56;;;;;;;8.43;1.50;;;;;;;14.52;33.82;102402.16;5051706;28;20021;-77
2021/04/19 09:45:41;;;;;;;7.82;1.80;;;;;;;14.60;34.14;102401.22;5052709;28;20031;-77
2021/04/19 09:48:06;;;;;;;9.77;1.65;;;;;;;14.69;34.49;102408.25;5048660;28;20033;-77
2021/04/19 09:50:34;;;;;;;8.30;1.75;;;;;;;14.50;34.32;102361.75;5033180;28;20037;-77
2021/04/19 09:52:59;;;;;;;3.13;1.20;;;;;;;14.86;33.64;102398.03;5048549;28;20024;-78
2021/04/19 09:55:25;;;;;;;4.32;1.15;;;;;;;14.96;33.33;102379.63;5048282;28;20332;-77
2021/04/19 09:57:52;;;;;;;8.52;1.40;;;;;;;15.00;32.64;102389.91;5049554;28;20361;-77
2021/04/19 10:00:18;;;;;;;6.40;1.60;;;;;;;15.30;33.50;102387.13;5049240;28;20029;-77
2021/04/19 10:02:45;;;;;;;5.60;1.55;;;;;;;15.50;32.83;102382.75;5028389;28;20033;-78
2021/04/19 10:05:13;;;;;;;7.78;1.38;;;;;;;15.45;33.25;102377.03;5030352;28;20029;-78
2021/04/19 10:07:43;;;;;;;6.30;1.20;;;;;;;15.55;32.80;102382.16;5058198;28;20031;-78
2021/04/19 10:10:10;;;;;;;7.28;1.48;;;;;;;15.51;32.31;102357.28;5061581;28;20021;-78
2021/04/19 10:12:50;;;;;;;4.30;1.38;;;;;;;15.80;31.00;102374.50;5051774;28;20045;-77
2021/04/19 10:15:24;;;;;;;2.38;1.08;;;;;;;15.76;31.63;102378.66;5053564;28;20050;-78
2021/04/19 10:17:51;;;;;;;4.50;1.40;;;;;;;15.84;31.81;102374.94;5051123;28;20083;-78
2021/04/19 10:20:24;;;;;;;4.85;1.50;;;;;;;15.81;31.89;102375.34;5034684;28;20029;-78
2021/04/19 10:23:11;;;;;;;6.43;1.52;;;;;;;15.91;32.00;102365.81;5052167;28;20021;-78
2021/04/19 10:26:04;;;;;;;3.92;1.30;;;;;;;16.11;31.63;102360.53;5050659;28;20025;-77
2021/04/19 10:28:42;;;;;;;7.10;1.25;;;;;;;16.32;31.33;102358.78;5052808;28;20135;-78
2021/04/19 10:31:21;;;;;;;4.18;1.30;;;;;;;16.30;31.21;102353.56;5061195;28;20033;-78
2021/04/19 10:33:53;;;;;;;4.90;1.30;;;;;;;16.49;31.66;102356.59;5046975;28;20477;-78
2021/04/19 10:36:26;;;;;;;6.43;1.80;;;;;;;16.31;30.63;102338.94;5052607;28;20063;-77
2021/04/19 10:38:59;;;;;;;3.33;1.35;;;;;;;16.40;31.28;102345.91;5046994;28;20108;-78
2021/04/19 10:41:32;;;;;;;5.25;1.40;;;;;;;16.21;30.99;102343.88;5048063;28;20373;-77
2021/04/19 10:43:59;;;;;;;4.57;1.40;;;;;;;16.26;31.50;102335.13;5065447;28;20021;-77
2021/04/19 10:46:29;;;;;;;5.93;1.50;;;;;;;16.33;31.98;102341.47;5047714;28;20036;-78
2021/04/19 10:48:56;;;;;;;2.53;1.20;;;;;;;16.51;31.90;102349.09;5062462;28;20032;-78
2021/04/19 10:51:36;;;;;;;6.82;1.23;;;;;;;16.43;30.26;102342.78;5047866;28;20340;-78
2021/04/19 10:54:07;;;;;;;3.70;1.15;;;;;;;16.65;30.31;102335.38;5064691;28;20033;-78
2021/04/19 10:56:33;;;;;;;4.50;1.33;;;;;;;16.60;30.51;102342.44;5047611;28;20450;-78
2021/04/19 10:59:05;;;;;;;4.25;1.45;;;;;;;16.70;30.77;102315.72;5047217;28;20033;-78
2021/04/19 11:01:41;;;;;;;4.03;1.45;;;;;;;16.76;31.54;102309.53;5047201;28;20111;-77
2021/04/19 11:04:08;;;;;;;4.10;1.20;;;;;;;16.79;28.80;102322.72;5053353;28;20501;-77
2021/04/19 11:06:37;;;;;;;5.45;1.35;;;;;;;16.86;29.37;102323.56;5033796;28;20615;-77
2021/04/19 11:09:07;;;;;;;3.65;1.48;;;;;;;17.14;29.46;102314.44;5061292;28;20025;-77
2021/04/19 11:11:36;;;;;;;5.07;1.60;;;;;;;17.14;29.57;102322.59;5049842;28;20083;-78
2021/04/19 11:14:21;;;;;;;5.45;1.48;;;;;;;16.90;30.21;102324.81;5049633;28;20024;-77
2021/04/19 11:17:03;;;;;;;3.25;1.35;;;;;;;17.00;30.26;102331.78;5048460;28;20021;-77
2021/04/19 11:19:42;;;;;;;4.43;1.40;;;;;;;17.05;30.09;102323.81;5048316;28;20477;-78
2021/04/19 11:22:28;;;;;;;3.33;1.23;;;;;;;17.06;29.95;102298.31;5048533;28;20012;-77
2021/04/19 11:25:18;;;;;;;8.32;1.52;;;;;;;17.19;30.49;102309.22;5048859;28;20043;-78
2021/04/19 11:27:45;;;;;;;7.53;1.67;;;;;;;17.28;29.95;102296.25;5061851;28;20032;-77
2021/04/19 11:30:17;;;;;;;4.40;1.65;;;;;;;17.28;29.53;102305.25;5047464;28;20029;-78
2021/04/19 11:32:44;;;;;;;4.90;1.70;;;;;;;17.10;29.76;102288.69;5045244;28;20029;-77
2021/04/19 11:35:32;;;;;;;7.03;1.60;;;;;;;17.04;29.57;102292.22;5046465;28;20049;-78
2021/04/19 11:38:00;;;;;;;3.88;1.60;;;;;;;17.24;30.25;102300.44;5053024;28;20033;-77
2021/04/19 11:40:31;;;;;;;5.05;1.48;;;;;;;17.42;30.56;102295.22;5061275;28;20112;-77
2021/04/19 11:42:57;;;;;;;4.70;1.73;;;;;;;17.28;29.37;102282.63;5049664;28;20060;-78
2021/04/19 11:45:25;;;;;;;3.25;1.40;;;;;;;17.37;29.64;102293.13;5050887;28;20052;-77
2021/04/19 11:47:51;;;;;;;6.35;4.40;;;;;;;17.42;29.47;102300.69;5051511;28;20047;-78
2021/04/19 11:50:19;;;;;;;3.95;1.55;;;;;;;17.24;28.82;102298.53;5054964;28;20079;-78